Wilson Clyde — 8PRV — position and weather

sailwx.info

Track history (hours):
 
Tides and Currents Weather Stations Pressure Air Temp Water Temp Dewpoint Dewpoint Depression Visibility Wind Speed Wind Dir Waves Ship Positions

Wilson Clyde

Last reported at 2014-Oct-31 22:31 UTC. Time now 2014-Oct-31 23:01 UTC.
Position N 54°20' E 009°44'.

Length 100 m; draft 5.8 m.

Type: Ship. MMSI: 314187000.

Date/timePositionNaut miles runAvg speedWind from/ knotsBaromVisibWave heightAir tempDewpointWater temp
2014-Oct-31 22:31N 54°20' E 009°44'7 6.2
2014-Oct-31 21:27N 54°15' E 009°37'6 7.1
2014-Oct-31 20:33N 54°11' E 009°28'8 7.7
2014-Oct-31 19:30N 54°05' E 009°19'4 4.5
2014-Oct-31 18:33N 54°01' E 009°18'9 8.5
2014-Oct-31 17:33N 53°54' E 009°09'2 2.2
2014-Oct-31 16:34N 53°53' E 009°06'1212.1
2014-Oct-31 15:34N 53°51' E 008°45'1313.1
2014-Oct-31 14:34N 53°59' E 008°27'1212.4
2014-Oct-31 13:33N 53°59' E 008°06'1212.0
2014-Oct-31 12:33N 53°57' E 007°46'1211.6
2014-Oct-31 11:30N 53°54' E 007°26'1111.2
2014-Oct-31 10:31N 53°52' E 007°08'2310.8
2014-Oct-31 08:25N 53°45' E 006°31'1110.9
2014-Oct-31 07:25N 53°42' E 006°13'910.5
2014-Oct-31 06:33N 53°39' E 005°59'1010.4
2014-Oct-31 05:33N 53°36' E 005°42'1010.3
2014-Oct-31 04:33N 53°33' E 005°25'1010.4
2014-Oct-31 03:33N 53°30' E 005°09'1110.7
2014-Oct-31 02:33N 53°26' E 004°52'1110.5
2014-Oct-31 01:30N 53°19' E 004°38'1011.2
2014-Oct-31 00:33N 53°09' E 004°30'1111.4
2014-Oct-30 23:33N 52°59' E 004°21'1211.5
2014-Oct-30 22:33N 52°49' E 004°12'1211.7
2014-Oct-30 21:33N 52°39' E 004°02'1211.8
2014-Oct-30 20:33N 52°28' E 003°55'1212.0
2014-Oct-30 19:33N 52°16' E 003°53'1212.2
2014-Oct-30 18:33N 52°04' E 003°54'9 9.4
2014-Oct-30 17:33N 51°58' E 004°05'1 0.7
2014-Oct-30 16:32N 51°57' E 004°05'0 0.0
2014-Oct-30 15:32N 51°57' E 004°05'0 0.0
2014-Oct-30 14:29N 51°57' E 004°05'0 0.0
2014-Oct-30 13:32N 51°57' E 004°05'0 0.0
2014-Oct-30 12:32N 51°57' E 004°05'0 0.0
2014-Oct-30 11:32N 51°57' E 004°05'0 0.0
2014-Oct-30 10:32N 51°57' E 004°05'0 0.0
2014-Oct-30 09:32N 51°57' E 004°05'0 0.0
2014-Oct-30 08:29N 51°57' E 004°05'0 0.0
2014-Oct-30 07:32N 51°57' E 004°05'0 0.0
2014-Oct-30 06:32N 51°57' E 004°05'0 0.0
2014-Oct-30 05:32N 51°57' E 004°05'0 0.0
2014-Oct-30 04:32N 51°57' E 004°05'0 0.0
2014-Oct-30 03:32N 51°57' E 004°05'0 0.0
2014-Oct-30 02:32N 51°57' E 004°05'0 0.0
2014-Oct-30 01:32N 51°57' E 004°05'0 0.0
2014-Oct-30 00:32N 51°57' E 004°05'0 0.0
2014-Oct-29 23:32N 51°57' E 004°05'0 0.0
2014-Oct-29 22:32N 51°57' E 004°05'0 0.0
2014-Oct-29 21:32N 51°57' E 004°05'0 0.0
2014-Oct-29 20:29N 51°57' E 004°05'0 0.0
2014-Oct-29 19:29N 51°57' E 004°05'0 0.0
2014-Oct-29 18:32N 51°57' E 004°05'0 0.0
2014-Oct-29 17:32N 51°57' E 004°05'0 0.0
2014-Oct-29 16:32N 51°57' E 004°05'0 0.0
2014-Oct-29 15:32N 51°57' E 004°05'0 0.0
2014-Oct-29 14:32N 51°57' E 004°05'0 0.2
2014-Oct-29 13:34N 51°57' E 004°05'6 6.2
2014-Oct-29 12:33N 51°60' E 003°56'8 7.8
2014-Oct-29 11:34N 52°02' E 003°43'6 5.4
2014-Oct-29 10:22N 52°05' E 003°35'69 9.9
2014-Oct-29 03:23N 52°45' E 002°02'1011.8
2014-Oct-29 02:33N 52°50' E 001°48'1312.6
2014-Oct-29 01:33N 52°57' E 001°31'1313.2
2014-Oct-29 00:33N 53°04' E 001°12'  
2014-Oct-24 21:32N 57°21' E 008°00'9 9.0
2014-Oct-24 20:32N 57°25' E 008°14'68 9.2
2014-Oct-24 13:12N 57°44' E 010°15'6 9.6
2014-Oct-24 12:34N 57°46' E 010°26'9 9.2
2014-Oct-24 11:33N 57°47' E 010°44'10 9.6
2014-Oct-24 10:33N 57°42' E 010°59'1010.5
2014-Oct-24 09:33N 57°34' E 011°10'1010.4
2014-Oct-24 08:33N 57°23' E 011°08'3 2.7
2014-Oct-24 07:33N 57°21' E 011°06'0 0.0
2014-Oct-24 06:24N 57°21' E 011°06'0 0.0
2014-Oct-24 05:33N 57°21' E 011°06'0 0.0
2014-Oct-24 04:33N 57°21' E 011°06'0 0.0
2014-Oct-24 03:30N 57°21' E 011°06'0 0.0
2014-Oct-24 02:30N 57°21' E 011°06'0 0.0
2014-Oct-24 01:24N 57°21' E 011°06'0 0.0
2014-Oct-24 00:30N 57°21' E 011°06'0 0.0
2014-Oct-23 23:33N 57°21' E 011°06'0 0.0
2014-Oct-23 22:33N 57°21' E 011°06'8 7.8
2014-Oct-23 21:29N 57°23' E 010°51'  
Track history (hours):
 
Tides and Currents Weather Stations Pressure Air Temp Water Temp Dewpoint Dewpoint Depression Visibility Wind Speed Wind Dir Waves Ship Positions

Wilson Clyde

Last reported at 2014-Oct-31 22:31 UTC. Time now 2014-Oct-31 23:01 UTC.
Position N 54°20' E 009°44'.

Length 100 m; draft 5.8 m.

Type: Ship. MMSI: 314187000.

Date/timePositionNaut miles runAvg speedWind from/ knotsBaromVisibWave heightAir tempDewpointWater temp
2014-Oct-31 22:31N 54°20' E 009°44'7 6.2
2014-Oct-31 21:27N 54°15' E 009°37'6 7.1
2014-Oct-31 20:33N 54°11' E 009°28'8 7.7
2014-Oct-31 19:30N 54°05' E 009°19'4 4.5
2014-Oct-31 18:33N 54°01' E 009°18'9 8.5
2014-Oct-31 17:33N 53°54' E 009°09'2 2.2
2014-Oct-31 16:34N 53°53' E 009°06'1212.1
2014-Oct-31 15:34N 53°51' E 008°45'1313.1
2014-Oct-31 14:34N 53°59' E 008°27'1212.4
2014-Oct-31 13:33N 53°59' E 008°06'1212.0
2014-Oct-31 12:33N 53°57' E 007°46'1211.6
2014-Oct-31 11:30N 53°54' E 007°26'1111.2
2014-Oct-31 10:31N 53°52' E 007°08'2310.8
2014-Oct-31 08:25N 53°45' E 006°31'1110.9
2014-Oct-31 07:25N 53°42' E 006°13'910.5
2014-Oct-31 06:33N 53°39' E 005°59'1010.4
2014-Oct-31 05:33N 53°36' E 005°42'1010.3
2014-Oct-31 04:33N 53°33' E 005°25'1010.4
2014-Oct-31 03:33N 53°30' E 005°09'1110.7
2014-Oct-31 02:33N 53°26' E 004°52'1110.5
2014-Oct-31 01:30N 53°19' E 004°38'1011.2
2014-Oct-31 00:33N 53°09' E 004°30'1111.4
2014-Oct-30 23:33N 52°59' E 004°21'1211.5
2014-Oct-30 22:33N 52°49' E 004°12'1211.7
2014-Oct-30 21:33N 52°39' E 004°02'1211.8
2014-Oct-30 20:33N 52°28' E 003°55'1212.0
2014-Oct-30 19:33N 52°16' E 003°53'1212.2
2014-Oct-30 18:33N 52°04' E 003°54'9 9.4
2014-Oct-30 17:33N 51°58' E 004°05'1 0.7
2014-Oct-30 16:32N 51°57' E 004°05'0 0.0
2014-Oct-30 15:32N 51°57' E 004°05'0 0.0
2014-Oct-30 14:29N 51°57' E 004°05'0 0.0
2014-Oct-30 13:32N 51°57' E 004°05'0 0.0
2014-Oct-30 12:32N 51°57' E 004°05'0 0.0
2014-Oct-30 11:32N 51°57' E 004°05'0 0.0
2014-Oct-30 10:32N 51°57' E 004°05'0 0.0
2014-Oct-30 09:32N 51°57' E 004°05'0 0.0
2014-Oct-30 08:29N 51°57' E 004°05'0 0.0
2014-Oct-30 07:32N 51°57' E 004°05'0 0.0
2014-Oct-30 06:32N 51°57' E 004°05'0 0.0
2014-Oct-30 05:32N 51°57' E 004°05'0 0.0
2014-Oct-30 04:32N 51°57' E 004°05'0 0.0
2014-Oct-30 03:32N 51°57' E 004°05'0 0.0
2014-Oct-30 02:32N 51°57' E 004°05'0 0.0
2014-Oct-30 01:32N 51°57' E 004°05'0 0.0
2014-Oct-30 00:32N 51°57' E 004°05'0 0.0
2014-Oct-29 23:32N 51°57' E 004°05'0 0.0
2014-Oct-29 22:32N 51°57' E 004°05'0 0.0
2014-Oct-29 21:32N 51°57' E 004°05'0 0.0
2014-Oct-29 20:29N 51°57' E 004°05'0 0.0
2014-Oct-29 19:29N 51°57' E 004°05'0 0.0
2014-Oct-29 18:32N 51°57' E 004°05'0 0.0
2014-Oct-29 17:32N 51°57' E 004°05'0 0.0
2014-Oct-29 16:32N 51°57' E 004°05'0 0.0
2014-Oct-29 15:32N 51°57' E 004°05'0 0.0
2014-Oct-29 14:32N 51°57' E 004°05'0 0.2
2014-Oct-29 13:34N 51°57' E 004°05'6 6.2
2014-Oct-29 12:33N 51°60' E 003°56'8 7.8
2014-Oct-29 11:34N 52°02' E 003°43'6 5.4
2014-Oct-29 10:22N 52°05' E 003°35'69 9.9
2014-Oct-29 03:23N 52°45' E 002°02'1011.8
2014-Oct-29 02:33N 52°50' E 001°48'1312.6
2014-Oct-29 01:33N 52°57' E 001°31'1313.2
2014-Oct-29 00:33N 53°04' E 001°12'  
2014-Oct-24 21:32N 57°21' E 008°00'9 9.0
2014-Oct-24 20:32N 57°25' E 008°14'68 9.2
2014-Oct-24 13:12N 57°44' E 010°15'6 9.6
2014-Oct-24 12:34N 57°46' E 010°26'9 9.2
2014-Oct-24 11:33N 57°47' E 010°44'10 9.6
2014-Oct-24 10:33N 57°42' E 010°59'1010.5
2014-Oct-24 09:33N 57°34' E 011°10'1010.4
2014-Oct-24 08:33N 57°23' E 011°08'3 2.7
2014-Oct-24 07:33N 57°21' E 011°06'0 0.0
2014-Oct-24 06:24N 57°21' E 011°06'0 0.0
2014-Oct-24 05:33N 57°21' E 011°06'0 0.0
2014-Oct-24 04:33N 57°21' E 011°06'0 0.0
2014-Oct-24 03:30N 57°21' E 011°06'0 0.0
2014-Oct-24 02:30N 57°21' E 011°06'0 0.0
2014-Oct-24 01:24N 57°21' E 011°06'0 0.0
2014-Oct-24 00:30N 57°21' E 011°06'0 0.0
2014-Oct-23 23:33N 57°21' E 011°06'0 0.0
2014-Oct-23 22:33N 57°21' E 011°06'8 7.8
2014-Oct-23 21:29N 57°23' E 010°51'  

Dump ship's entire track history